Flight Track Log - Related Links

Times and Time Zones

All times are in EST time to prevent confusion due to time zone crossing. See the QFA1129 flight status page for this flight to view local times or setup timezone preferences in your user account.

Time Position Orientation Groundspeed Altitude Reporting Facility
EST Latitude Longitude Course Direction KTS MPH feet Rate Location/Type
Wed 12:37:04 AM -20.3778 118.6265 190° South 37,400  Level Aus ATC (Calculated)
Wed 12:38:04 AM -20.4810 118.6076 190° South 37,400 -2,165 Level Aus ATC (Calculated)
Wed 12:39:59 AM -20.6743 118.5722 190° South 37,400 -2,478 Level Aus ATC (Calculated)
Wed 12:40:00 AM -20.6921 118.5690 190° South  Level FlightAware Approximate
Wed 12:41:00 AM -20.7853 118.5519 190° South  Level FlightAware Approximate
Wed 12:41:04 AM -20.7589 118.5567 190° South 37,400  Level Aus ATC (Calculated)
Wed 12:42:58 AM -20.9967 118.5130 North 37,400 -4,385 Level Aus ATC (Calculated)
Wed 12:43:00 AM -20.9700 118.5179 190° South  Level FlightAware Approximate
Wed 12:44:00 AM -21.1096 118.4922 190° South  Level FlightAware Approximate
Wed 12:44:58 AM -20.9657 118.5183 190° South 380 437 20,300  Level Aus ATC (RADAR)
Wed 12:45:00 AM -21.2187 118.4720 190° South  Level FlightAware Approximate
Wed 12:47:03 AM -21.1956 118.4764 190° South 397 457 24,600  Level Aus ATC (RADAR)
Wed 12:47:28 AM -21.2425 118.4676 190° South 401 461 25,300 1,500 Climbing Aus ATC (RADAR)
Wed 12:48:23 AM -21.3492 118.4477 190° South 418 481 26,600 1,440 Climbing Aus ATC (RADAR)
Wed 12:48:43 AM -21.3892 118.4404 190° South 424 488 27,100 1,667 Climbing Aus ATC (RADAR)
Wed 12:49:17 AM -21.4601 118.4279 189° South 432 497 28,100 1,491 Climbing Aus ATC (RADAR)
Wed 12:51:32 AM -21.7387 118.3767 190° South 450 518 31,300 1,500 Climbing Aus ATC (RADAR)
Wed 12:51:53 AM -21.7807 118.3689 190° South 451 519 32,000 1,700 Climbing Aus ATC (RADAR)
Wed 12:52:32 AM -21.8646 118.3540 189° South 450 518 33,000 1,548 Climbing Aus ATC (RADAR)
Wed 12:53:57 AM -22.0402 118.3212 190° South 445 512 35,200 1,500 Climbing Aus ATC (RADAR)
Wed 12:54:32 AM -22.1119 118.3075 190° South 442 509 36,000 1,161 Climbing Aus ATC (RADAR)
Wed 12:56:32 AM -22.3537 118.2624 190° South 437 503 38,200 1,120 Climbing Aus ATC (RADAR)
Wed 12:57:02 AM -22.4147 118.2513 190° South 438 504 38,800 1,011 Climbing Aus ATC (RADAR)
Wed 12:58:01 AM -22.5351 118.2291 190° South 432 497 39,700 600 Climbing Aus ATC (RADAR)
Wed 12:58:42 AM -22.6147 118.2144 190° South 431 496 39,800 137 Climbing Aus ATC (RADAR)
Wed 01:00:12 AM -22.7924 118.1812 190° South 428 493 40,000 56 Climbing Aus ATC (RADAR)
Wed 01:02:16 AM -23.0373 118.1357 190° South 424 488 40,000  Level Aus ATC (RADAR)
Wed 01:03:21 AM -23.1643 118.1122 190° South 424 488 40,000  Level Aus ATC (RADAR)
Wed 01:03:42 AM -23.2034 118.1049 190° South 424 488 40,000  Level Aus ATC (RADAR)
Wed 01:04:26 AM -23.2914 118.0884 190° South 424 488 40,000  Level Aus ATC (RADAR)
Wed 01:04:51 AM -23.3410 118.0791 190° South 428 493 40,000  Level Aus ATC (RADAR)
Wed 01:05:16 AM -23.3897 118.0697 190° South 425 489 40,000  Level Aus ATC (RADAR)
Wed 01:07:31 AM -23.6541 118.0191 190° South 425 489 40,000  Level Aus ATC (RADAR)
Wed 01:07:46 AM -23.6835 118.0135 190° South 425 489 40,000  Level Aus ATC (RADAR)
Wed 01:08:21 AM -23.7518 118.0003 190° South 426 490 40,000  Level Aus ATC (RADAR)
Wed 01:08:56 AM -23.8202 117.9871 190° South 426 490 40,000  Level Aus ATC (RADAR)
Wed 01:11:25 AM -24.1127 117.9302 190° South 424 488 40,000 -30 Level Aus ATC (RADAR)
Wed 01:12:15 AM -24.2100 117.9112 190° South 424 488 39,900 -86 Descending Aus ATC (RADAR)
Wed 01:12:35 AM -24.2489 117.9040 190° South 424 488 39,900  Level Aus ATC (RADAR)
Wed 01:13:21 AM -24.3364 117.8870 190° South 424 488 39,900  Level Aus ATC (RADAR)
Wed 01:14:31 AM -24.4729 117.8615 190° South 424 488 39,900 55 Level Aus ATC (RADAR)
Wed 01:15:11 AM -24.5511 117.8463 190° South 425 489 40,000 60 Climbing Aus ATC (RADAR)
Wed 01:16:11 AM -24.6681 117.8236 190° South 425 489 40,000  Level Aus ATC (RADAR)
Wed 01:17:25 AM -24.8144 117.7942 190° South 426 490 40,000  Level Aus ATC (RADAR)
Wed 01:18:25 AM -24.9311 117.7718 190° South 424 488 40,000  Level Aus ATC (RADAR)
Wed 01:18:45 AM -24.9698 117.7652 189° South 422 486 40,000  Level Aus ATC (RADAR)
Wed 01:19:24 AM -25.0471 117.7496 190° South 422 486 40,000  Level Aus ATC (RADAR)
Wed 01:20:25 AM -25.1629 117.7268 190° South 420 483 40,000  Level Aus ATC (RADAR)
Wed 01:22:05 AM -25.3531 117.6901 190° South 415 478 40,000  Level Aus ATC (RADAR)
Wed 01:23:20 AM -25.4959 117.6622 190° South 416 479 40,000  Level Aus ATC (RADAR)
Wed 01:23:49 AM -25.5534 117.6508 190° South 418 481 40,000  Level Aus ATC (RADAR)
Wed 01:24:44 AM -25.6583 117.6290 191° South 418 481 40,000  Level Aus ATC (RADAR)
Wed 01:25:25 AM -25.7348 117.6146 190° South 417 480 40,000  Level Aus ATC (RADAR)
Wed 01:28:20 AM -26.0677 117.5500 190° South 415 478 40,000  Level Aus ATC (RADAR)
Wed 01:29:49 AM -26.2393 117.5138 191° South 418 481 40,000  Level Aus ATC (RADAR)
Wed 01:30:29 AM -26.3156 117.4998 189° South 416 479 40,000  Level Aus ATC (RADAR)
Wed 01:34:39 AM -26.7941 117.4070 190° South 418 481 40,000  Level Aus ATC (RADAR)
Wed 01:35:28 AM -26.8893 117.3877 190° South 417 480 40,000  Level Aus ATC (RADAR)
Wed 01:46:32 AM -28.1076 117.1434 190° South 394 453 40,000  Level FlightAware ADS-B
Wed 01:47:08 AM -28.1736 117.1300 190° South 394 453 40,000  Level FlightAware ADS-B
Wed 01:47:38 AM -28.2305 117.1183 190° South 394 453 40,000  Level FlightAware ADS-B
Wed 01:48:17 AM -28.3033 117.1035 190° South 394 453 40,000  Level FlightAware ADS-B
Wed 01:48:54 AM -28.3707 117.0897 190° South 394 453 40,000  Level FlightAware ADS-B
Wed 01:49:34 AM -28.4427 117.0749 190° South 394 453 40,000  Level FlightAware ADS-B
Wed 01:50:21 AM -28.5280 117.0572 190° South 394 453 40,000  Level FlightAware ADS-B
Wed 01:51:02 AM -28.6045 117.0414 190° South 395 455 40,000  Level FlightAware ADS-B
Wed 01:51:38 AM -28.6705 117.0279 190° South 395 455 40,000  Level FlightAware ADS-B
Wed 01:52:10 AM -28.7278 117.0160 190° South 395 455 40,000  Level FlightAware ADS-B
Wed 01:52:46 AM -28.7955 117.0021 190° South 394 453 40,000  Level FlightAware ADS-B
Wed 01:53:27 AM -28.8702 116.9867 190° South 394 453 40,000  Level FlightAware ADS-B
Wed 01:54:04 AM -28.9377 116.9727 190° South 394 453 40,000  Level FlightAware ADS-B
Wed 01:54:34 AM -28.9925 116.9613 190° South 393 452 40,000  Level FlightAware ADS-B
Wed 01:55:12 AM -29.0609 116.9470 190° South 393 452 40,000  Level FlightAware ADS-B
Wed 01:55:42 AM -29.1168 116.9354 190° South 392 451 40,000  Level FlightAware ADS-B
Wed 01:56:20 AM -29.1859 116.9209 190° South 392 451 40,000  Level FlightAware ADS-B
Wed 01:56:51 AM -29.2419 116.9092 190° South 392 451 40,000  Level FlightAware ADS-B
Wed 01:57:27 AM -29.3079 116.8954 190° South 391 450 40,000  Level FlightAware ADS-B
Wed 01:58:00 AM -29.3677 116.8830 190° South 392 451 40,000  Level FlightAware ADS-B
Wed 01:59:41 AM -29.5372 116.8474 190° South 393 452 40,000  Level FlightAware ADS-B
Wed 02:00:12 AM -29.6074 116.8327 190° South 393 452 40,000  Level FlightAware ADS-B
Wed 02:00:50 AM -29.6752 116.8185 190° South 393 452 40,000  Level FlightAware ADS-B
Wed 02:01:21 AM -29.7337 116.8061 190° South 394 453 40,000  Level FlightAware ADS-B
Wed 02:01:57 AM -29.8007 116.7920 190° South 395 455 40,000  Level FlightAware ADS-B
Wed 02:02:28 AM -29.8562 116.7803 190° South 395 455 40,000  Level FlightAware ADS-B
Wed 02:03:06 AM -29.9272 116.7652 190° South 395 455 40,000  Level FlightAware ADS-B
Wed 02:03:37 AM -29.9833 116.7533 190° South 395 455 40,000  Level FlightAware ADS-B
Wed 02:04:12 AM -30.0471 116.7398 190° South 396 456 40,000  Level FlightAware ADS-B
Wed 02:04:42 AM -30.1029 116.7279 190° South 396 456 40,000  Level FlightAware ADS-B
Wed 02:05:21 AM -30.1738 116.7128 190° South 396 456 40,000  Level FlightAware ADS-B
Wed 02:06:08 AM -30.2616 116.6941 190° South 395 455 40,000 -857 Level FlightAware ADS-B
Wed 02:06:38 AM -30.3157 116.6826 190° South 394 453 38,900 -2,261 Descending FlightAware ADS-B
Wed 02:07:17 AM -30.3865 116.6675 190° South 395 455 37,400 -2,231 Descending FlightAware ADS-B
Wed 02:07:56 AM -30.4590 116.6521 190° South 390 449 36,000 -2,704 Descending FlightAware ADS-B
Wed 02:08:28 AM -30.5170 116.6394 191° South 411 473 34,200 -2,776 Descending FlightAware ADS-B
Wed 02:09:03 AM -30.5833 116.6199 194° South 410 472 32,900 -2,959 Descending FlightAware ADS-B
Wed 02:09:41 AM -30.6541 116.5925 198° South 425 489 30,600 -2,769 Descending FlightAware ADS-B
Wed 02:10:21 AM -30.7280 116.5640 198° South 412 474 29,300 -1,974 Descending FlightAware ADS-B
Wed 02:10:57 AM -30.7944 116.5380 199° South 409 471 28,100 -2,029 Descending FlightAware ADS-B
Wed 02:11:29 AM -30.8508 116.5159 199° South 392 451 27,000 -2,029 Descending FlightAware ADS-B
Wed 02:12:05 AM -30.9125 116.4918 199° South 391 450 25,800 -2,028 Descending FlightAware ADS-B
Wed 02:12:40 AM -30.9705 116.4688 199° South 375 432 24,600 -1,944 Descending FlightAware ADS-B
Wed 02:13:16 AM -31.0284 116.4459 199° South 355 409 23,500 -1,652 Descending FlightAware ADS-B
Wed 02:13:49 AM -31.0787 116.4262 199° South 348 400 22,700 -1,660 Descending Aus ATC (RADAR)
Wed 02:14:03 AM -31.0997 116.4189 199° South 343 395 22,200 -1,867 Descending FlightAware ADS-B
Wed 02:14:34 AM -31.1460 116.4010 198° South 338 389 21,300 -1,701 Descending FlightAware ADS-B
Wed 02:15:10 AM -31.1999 116.3795 199° South 325 374 20,300 -1,636 Descending FlightAware ADS-B
Wed 02:15:40 AM -31.2422 116.3626 199° South 327 376 19,500 -1,714 Descending FlightAware ADS-B
Wed 02:16:20 AM -31.2996 116.3401 199° South 323 372 18,300 -2,229 Descending FlightAware ADS-B
Wed 02:16:50 AM -31.3433 116.3227 199° South 341 392 16,900 -1,658 Descending FlightAware ADS-B
Wed 02:17:36 AM -31.4115 116.2953 199° South 332 382 16,200 -935 Descending FlightAware ADS-B
Wed 02:18:07 AM -31.4547 116.2693 207° Southwest 332 382 15,700 -1,412 Descending FlightAware ADS-B
Wed 02:18:44 AM -31.5066 116.2362 209° Southwest 332 382 14,600 -1,816 Descending FlightAware ADS-B
Wed 02:19:23 AM -31.5577 116.2036 209° Southwest 319 367 13,400 -1,739 Descending FlightAware ADS-B
Wed 02:19:53 AM -31.5954 116.1795 209° Southwest 317 365 12,600 -1,688 Descending FlightAware ADS-B
Wed 02:20:27 AM -31.6403 116.1505 209° Southwest 311 358 11,600 -1,792 Descending FlightAware ADS-B
Wed 02:21:10 AM -31.6959 116.1149 209° Southwest 314 361 10,300 -1,810 Descending FlightAware ADS-B
Wed 02:21:30 AM -31.7212 116.0986 209° Southwest 314 361 9,700 -1,814 Descending FlightAware ADS-B
Wed 02:21:53 AM -31.7503 116.0816 206° Southwest 311 358 9,000 -1,731 Descending FlightAware ADS-B
Wed 02:22:22 AM -31.7899 116.0701 194° South 299 344 8,200 -1,778 Descending FlightAware ADS-B
Wed 02:22:47 AM -31.8262 116.0648 187° South 304 350 7,400 -1,800 Descending FlightAware ADS-B
Wed 02:23:02 AM -31.8467 116.0698 168° South 304 350 7,000 -1,765 Descending FlightAware ADS-B
Wed 02:23:21 AM -31.8711 116.0820 157° South 304 350 6,400 -1,784 Descending FlightAware ADS-B
Wed 02:23:39 AM -31.8957 116.0946 156° South 304 350 5,900 -652 Descending FlightAware ADS-B
Wed 02:24:07 AM -31.9269 116.1107 156° South 304 350 5,900 -346 Level FlightAware ADS-B
Wed 02:24:31 AM -31.9529 116.1241 156° South 248 285 5,600 -1,000 Descending FlightAware ADS-B
Wed 02:24:37 AM -31.9590 116.1271 158° South 266 306 5,400 -1,667 Descending FlightAware ADS-B
Wed 02:24:49 AM -31.9743 116.1295 172° South 258 297 5,100 -732 Descending FlightAware ADS-B
Wed 02:25:18 AM -32.0077 116.1157 199° South 239 275 4,900 -517 Descending FlightAware ADS-B
Wed 02:25:47 AM -32.0357 116.1032 201° Southwest 221 254 4,600 -840 Descending FlightAware ADS-B
Wed 02:26:08 AM -32.0563 116.0935 202° Southwest 218 251 4,200 -1,050 Descending FlightAware ADS-B
Wed 02:26:27 AM -32.0672 116.0790 229° Southwest 225 259 3,900 -1,200 Descending FlightAware ADS-B
Wed 02:26:48 AM -32.0657 116.0506 274° West 225 259 3,400 -1,161 Descending FlightAware ADS-B
Wed 02:26:58 AM -32.0633 116.0406 286° West 218 251 3,300 -1,067 Descending FlightAware ADS-B
Wed 02:27:33 AM -32.0537 116.0011 286° West 213 245 2,600 -1,111 Descending FlightAware ADS-B
Wed 02:27:52 AM -32.0491 115.9801 285° West 205 236 2,300 -985 Descending FlightAware ADS-B
Wed 02:28:40 AM -32.0315 115.9394 297° West 164 189 1,500 -915 Descending FlightAware ADS-B
Wed 02:28:51 AM -32.0242 115.9401 North 150 173 1,400 -1,034 Descending FlightAware ADS-B
Wed 02:29:09 AM -32.0115 115.9444 16° North 142 163 1,000 -973 Descending FlightAware ADS-B
Wed 02:29:28 AM -31.9996 115.9480 14° North 148 170 800 -732 Descending FlightAware ADS-B
Wed 02:29:50 AM -31.9841 115.9523 14° North 148 170 500 -789 Descending FlightAware ADS-B
Wed 02:30:06 AM -31.9739 115.9553 14° North 138 159 300 -750 Descending FlightAware ADS-B
Wed 02:30:38 AM -31.9524 115.9615 14° North 138 159 -563 Descending FlightAware ADS-B

Login

Don't have an account? Register now (free) for customized features, flight alerts, and more!